Time;durP1;ratioP1;P1;durP2;ratioP2;P2;SDS_P1;SDS_P2;PMS_P1;PMS_P2;Temp;Humidity;BMP_temperature;BMP_pressure;BME280_temperature;BME280_humidity;BME280_pressure;Samples;Min_cycle;Max_cycle;Signal;HPM_P1;HPM_P2
2021/08/15 00:00:53;;;;;;;12.53;11.20;;;;;;;16.00;68.21;100160.24;153981;1100;103192;-80
2021/08/15 00:03:56;;;;;;;15.63;12.03;;;;;;;15.96;68.61;100158.96;153997;1101;103192;-79
2021/08/15 00:06:58;;;;;;;13.27;10.77;;;;;;;15.90;68.79;100157.86;153999;1100;103147;-80
2021/08/15 00:10:01;;;;;;;15.00;10.50;;;;;;;15.87;68.08;100157.41;153987;1093;103187;-80
2021/08/15 00:13:05;;;;;;;15.53;11.00;;;;;;;15.82;68.47;100151.75;154078;1100;103190;-81
2021/08/15 00:16:07;;;;;;;18.75;11.30;;;;;;;15.83;68.10;100156.13;154100;1100;103192;-80
2021/08/15 00:19:10;;;;;;;14.13;10.30;;;;;;;15.88;68.96;100148.33;153962;1100;103291;-79
2021/08/15 00:22:13;;;;;;;13.37;10.87;;;;;;;15.81;68.62;100148.23;154163;1100;103123;-80
2021/08/15 00:25:17;;;;;;;13.40;11.03;;;;;;;15.67;68.54;100144.53;154141;1093;103187;-81
2021/08/15 00:28:20;;;;;;;16.90;11.67;;;;;;;15.64;68.88;100150.28;154074;1100;103187;-81
2021/08/15 00:31:24;;;;;;;14.47;9.93;;;;;;;15.57;68.87;100149.39;154058;1100;103196;-78
2021/08/15 00:34:28;;;;;;;12.83;9.83;;;;;;;15.66;69.25;100136.64;153914;1100;103193;-78
2021/08/15 00:37:31;;;;;;;14.50;10.57;;;;;;;15.72;68.47;100135.88;153966;1101;103259;-78
2021/08/15 00:40:33;;;;;;;15.43;11.27;;;;;;;15.74;68.71;100138.42;153995;1100;103189;-78
2021/08/15 00:43:36;;;;;;;14.07;11.33;;;;;;;15.74;69.32;100139.25;153974;1101;103554;-79
2021/08/15 00:46:42;;;;;;;13.97;11.20;;;;;;;15.73;68.96;100136.73;153982;1100;103101;-78
2021/08/15 00:49:44;;;;;;;13.33;11.35;;;;;;;15.74;69.11;100143.80;153986;1100;103194;-77
2021/08/15 00:52:47;;;;;;;16.50;10.43;;;;;;;15.66;69.13;100129.41;153955;1100;103311;-77
2021/08/15 00:55:50;;;;;;;16.45;10.00;;;;;;;15.69;69.56;100134.41;153984;1100;103183;-77
2021/08/15 00:58:54;;;;;;;14.63;10.17;;;;;;;15.70;69.31;100138.79;153974;1093;103136;-77
2021/08/15 01:01:58;;;;;;;14.10;9.97;;;;;;;15.61;68.87;100133.71;153972;1093;103103;-77
2021/08/15 01:05:02;;;;;;;15.50;10.85;;;;;;;15.58;69.38;100140.28;153998;1100;103113;-75
2021/08/15 01:08:06;;;;;;;16.00;10.87;;;;;;;15.50;69.40;100137.70;154006;1101;103294;-77
2021/08/15 01:11:11;;;;;;;13.83;10.43;;;;;;;15.43;69.71;100139.47;153992;1093;103141;-77
2021/08/15 01:14:14;;;;;;;11.93;9.33;;;;;;;15.41;69.34;100136.14;154000;1093;103214;-77
2021/08/15 01:17:17;;;;;;;12.18;9.53;;;;;;;15.41;69.56;100136.14;153967;1100;103189;-76
2021/08/15 01:20:20;;;;;;;13.67;9.80;;;;;;;15.36;69.56;100130.48;153961;1093;103153;-77
2021/08/15 01:23:23;;;;;;;14.40;10.70;;;;;;;15.34;69.80;100135.22;153984;1093;103282;-73
2021/08/15 01:26:25;;;;;;;15.30;11.30;;;;;;;15.35;69.81;100131.52;153993;1100;103202;-73
2021/08/15 01:29:29;;;;;;;12.57;10.63;;;;;;;15.34;69.93;100127.14;153960;1100;103156;-73
2021/08/15 01:32:32;;;;;;;15.57;10.77;;;;;;;15.35;69.70;100134.20;153921;1100;103213;-74
2021/08/15 01:35:35;;;;;;;15.70;10.07;;;;;;;15.25;69.52;100132.63;154039;1100;103096;-80
2021/08/15 01:38:39;;;;;;;14.13;9.63;;;;;;;15.21;69.90;100128.66;153983;1100;103272;-80
2021/08/15 01:41:42;;;;;;;13.28;10.25;;;;;;;15.25;70.21;100121.88;154121;1100;103116;-80
2021/08/15 01:44:45;;;;;;;10.90;9.23;;;;;;;15.33;70.16;100115.56;154082;1093;103123;-81
2021/08/15 01:47:48;;;;;;;14.93;10.30;;;;;;;15.37;70.21;100116.03;154062;1100;103164;-81
2021/08/15 01:50:50;;;;;;;13.40;10.13;;;;;;;15.40;69.92;100107.60;154103;1100;103099;-81
2021/08/15 01:53:55;;;;;;;14.00;10.40;;;;;;;15.38;69.98;100109.64;154037;1093;103464;-80
2021/08/15 01:56:58;;;;;;;13.05;10.33;;;;;;;15.38;70.10;100109.64;154118;1100;103189;-79
2021/08/15 02:00:01;;;;;;;15.17;9.70;;;;;;;15.36;70.14;100111.66;153992;1098;103107;-79
2021/08/15 02:03:05;;;;;;;12.07;9.57;;;;;;;15.33;69.98;100114.74;153923;1100;103557;-80
2021/08/15 02:06:08;;;;;;;13.53;10.03;;;;;;;15.24;70.64;100104.10;154071;1093;103233;-80
2021/08/15 02:09:11;;;;;;;15.17;10.70;;;;;;;15.16;70.05;100106.87;154079;1100;103256;-85
2021/08/15 02:12:14;;;;;;;14.93;10.87;;;;;;;15.11;70.74;100103.92;154193;1100;103112;-85
2021/08/15 02:15:16;;;;;;;13.50;10.00;;;;;;;15.11;70.73;100101.23;154110;1100;103133;-88
2021/08/15 02:18:19;;;;;;;10.70;9.00;;;;;;;15.13;70.05;100099.20;154088;1093;103189;-86
2021/08/15 02:21:22;;;;;;;12.30;9.75;;;;;;;15.17;70.15;100102.34;154121;1093;103484;-89
2021/08/15 02:24:25;;;;;;;11.27;9.57;;;;;;;15.14;70.14;100105.39;154109;1100;103525;-85
2021/08/15 02:27:27;;;;;;;11.70;9.93;;;;;;;15.11;70.49;100099.38;154203;1093;103193;-85
2021/08/15 02:30:31;;;;;;;13.78;10.63;;;;;;;15.12;70.57;100097.52;154124;1100;103133;-84
2021/08/15 02:33:34;;;;;;;14.28;10.50;;;;;;;15.14;70.68;100103.53;154229;1100;103192;-83
2021/08/15 02:36:36;;;;;;;12.90;10.00;;;;;;;15.10;70.62;100099.56;154058;1100;103138;-83
2021/08/15 02:39:39;;;;;;;11.10;9.20;;;;;;;15.09;70.76;100098.73;154110;1100;103523;-83
2021/08/15 02:42:44;;;;;;;12.53;9.67;;;;;;;15.08;70.73;100107.80;154201;1100;103259;-86
2021/08/15 02:45:48;;;;;;;13.77;9.60;;;;;;;15.13;70.49;100104.57;154069;1100;103187;-85
2021/08/15 02:48:50;;;;;;;12.68;10.30;;;;;;;15.16;70.70;100101.49;154129;1100;103189;-83
2021/08/15 02:51:53;;;;;;;12.50;10.70;;;;;;;15.20;70.98;100100.09;154103;1093;103218;-84
2021/08/15 02:54:56;;;;;;;14.73;10.57;;;;;;;15.15;70.74;100099.02;154128;1100;103184;-84
2021/08/15 02:57:59;;;;;;;11.98;8.98;;;;;;;15.05;71.00;100099.27;154074;1093;103222;-80
2021/08/15 03:01:01;;;;;;;12.83;8.70;;;;;;;15.09;70.96;100097.91;154052;1100;103183;-79
2021/08/15 03:04:04;;;;;;;14.15;10.25;;;;;;;15.13;70.81;100096.52;154118;1100;103192;-81
2021/08/15 03:07:07;;;;;;;12.47;9.93;;;;;;;15.21;71.12;100090.20;154009;1093;103121;-81
2021/08/15 03:10:11;;;;;;;13.17;10.50;;;;;;;15.23;70.77;100086.29;154142;1093;103183;-86
2021/08/15 03:13:14;;;;;;;15.10;10.30;;;;;;;15.24;71.04;100090.66;154114;1100;103126;-83
2021/08/15 03:16:17;;;;;;;12.77;9.93;;;;;;;15.23;71.33;100083.61;154152;1093;103233;-81
2021/08/15 03:19:19;;;;;;;11.97;9.30;;;;;;;15.23;71.51;100086.29;154244;1093;103460;-81
2021/08/15 03:22:22;;;;;;;11.23;9.67;;;;;;;15.32;71.13;100073.59;154131;1100;103158;-82
2021/08/15 03:25:25;;;;;;;14.63;10.43;;;;;;;15.35;71.21;100075.89;154100;1100;103190;-81
2021/08/15 03:28:28;;;;;;;13.83;10.33;;;;;;;15.39;71.31;100077.17;154082;1100;103654;-82
2021/08/15 03:31:31;;;;;;;12.10;10.20;;;;;;;15.43;71.49;100080.32;154202;1094;103232;-85
2021/08/15 03:34:33;;;;;;;14.73;9.65;;;;;;;15.43;71.23;100078.45;154211;1100;103216;-85
2021/08/15 03:37:36;;;;;;;10.83;9.30;;;;;;;15.51;71.96;100075.67;154082;1100;103140;-85
2021/08/15 03:40:39;;;;;;;14.80;10.17;;;;;;;15.59;72.04;100061.28;154117;1093;103975;-82
2021/08/15 03:43:42;;;;;;;13.97;10.27;;;;;;;15.68;71.54;100064.66;154095;1100;103106;-81
2021/08/15 03:46:44;;;;;;;12.65;10.43;;;;;;;15.76;71.61;100055.67;154099;1093;103218;-80
2021/08/15 03:49:47;;;;;;;12.90;10.73;;;;;;;15.82;71.88;100058.44;154099;1100;103248;-78
2021/08/15 03:52:50;;;;;;;15.47;9.57;;;;;;;15.84;72.13;100055.53;153998;1091;103202;-80
2021/08/15 03:55:53;;;;;;;15.68;9.33;;;;;;;15.90;72.13;100057.48;154132;1093;103650;-81
2021/08/15 03:58:55;;;;;;;14.70;9.63;;;;;;;15.97;72.16;100050.28;154051;1100;103192;-80
2021/08/15 04:01:58;;;;;;;13.10;10.30;;;;;;;16.01;72.23;100042.66;154101;1100;103109;-83
2021/08/15 04:05:01;;;;;;;14.10;10.55;;;;;;;16.08;72.49;100041.68;154205;1093;103192;-84
2021/08/15 04:08:05;;;;;;;13.30;10.55;;;;;;;16.17;72.23;100041.56;154160;1101;103249;-80
2021/08/15 04:11:08;;;;;;;12.98;9.55;;;;;;;16.24;72.46;100043.28;154141;1100;103159;-86
2021/08/15 04:14:11;;;;;;;12.57;9.33;;;;;;;16.43;72.55;100039.05;154091;1101;103149;-84
2021/08/15 04:17:15;;;;;;;14.03;11.37;;;;;;;16.63;72.38;100031.11;154084;1093;103187;-85
2021/08/15 04:20:18;;;;;;;14.50;12.20;;;;;;;16.78;72.88;100032.83;154132;1100;103192;-85
2021/08/15 04:23:21;;;;;;;13.85;11.53;;;;;;;16.89;72.86;100029.61;154050;1094;103282;-85
2021/08/15 04:26:24;;;;;;;17.03;11.00;;;;;;;17.00;72.87;100030.92;154123;1093;103124;-85
2021/08/15 04:29:27;;;;;;;12.10;10.17;;;;;;;17.12;73.17;100026.59;154089;1100;103165;-80
2021/08/15 04:32:30;;;;;;;13.67;11.17;;;;;;;17.24;73.08;100029.55;154095;1093;103195;-80
2021/08/15 04:35:32;;;;;;;15.40;13.00;;;;;;;17.36;73.13;100030.64;154166;1100;103192;-83
2021/08/15 04:38:35;;;;;;;18.67;12.90;;;;;;;17.47;73.38;100039.98;154173;1093;103219;-81
2021/08/15 04:41:38;;;;;;;14.13;11.87;;;;;;;17.62;73.54;100026.33;154083;1093;103190;-83
2021/08/15 04:44:41;;;;;;;13.43;11.60;;;;;;;17.80;73.69;100026.58;154216;1100;103189;-83
2021/08/15 04:47:43;;;;;;;15.55;12.38;;;;;;;17.98;73.64;100023.28;154116;1100;103193;-83
2021/08/15 04:50:46;;;;;;;13.83;12.03;;;;;;;18.13;73.61;100028.48;154051;1100;103127;-83
2021/08/15 04:53:49;;;;;;;14.90;12.70;;;;;;;18.25;74.03;100034.09;154073;1098;103153;-84
2021/08/15 04:56:52;;;;;;;16.17;11.97;;;;;;;18.33;73.76;100039.27;154096;1100;103145;-83
2021/08/15 04:59:55;;;;;;;11.47;9.60;;;;;;;18.42;73.75;100032.61;154101;1093;103124;-82
2021/08/15 05:02:57;;;;;;;12.93;11.10;;;;;;;18.59;73.54;100030.30;154114;1100;103141;-83
2021/08/15 05:06:01;;;;;;;15.50;12.50;;;;;;;18.80;73.65;100036.50;154088;1100;103124;-82
2021/08/15 05:09:04;;;;;;;16.13;12.83;;;;;;;19.04;73.76;100037.69;154097;1100;103141;-85
2021/08/15 05:12:08;;;;;;;16.10;12.83;;;;;;;19.18;73.61;100033.86;154090;1100;103701;-85
2021/08/15 05:15:12;;;;;;;11.93;10.63;;;;;;;19.40;73.63;100034.39;154144;1100;103122;-84
2021/08/15 05:18:15;;;;;;;15.28;13.43;;;;;;;19.70;73.47;100035.67;154152;1101;103510;-86
2021/08/15 05:21:18;;;;;;;15.90;13.20;;;;;;;19.98;73.22;100035.30;154072;1100;103200;-83
2021/08/15 05:24:20;;;;;;;15.70;12.83;;;;;;;20.26;73.00;100039.44;154225;1093;103124;-81
2021/08/15 05:27:23;;;;;;;14.23;11.80;;;;;;;20.52;72.98;100031.06;154102;1100;103208;-81
2021/08/15 05:30:27;;;;;;;15.13;12.23;;;;;;;20.82;72.99;100035.77;154126;1100;103139;-84
2021/08/15 05:33:30;;;;;;;14.75;12.58;;;;;;;21.13;72.84;100029.36;154093;1100;103130;-87
2021/08/15 05:36:33;;;;;;;12.73;11.43;;;;;;;21.40;72.39;100041.73;154637;1100;103172;-78
2021/08/15 05:39:36;;;;;;;13.77;12.37;;;;;;;21.52;72.24;100032.63;154457;1093;103107;-79
2021/08/15 05:42:39;;;;;;;16.27;12.70;;;;;;;21.62;72.00;100033.96;154074;1093;103241;-87
2021/08/15 05:45:42;;;;;;;15.57;12.03;;;;;;;21.66;72.26;100033.25;154135;1100;103126;-81
2021/08/15 05:48:44;;;;;;;12.43;10.80;;;;;;;21.67;71.87;100034.08;154033;1093;103134;-85
2021/08/15 05:51:47;;;;;;;10.87;9.70;;;;;;;21.68;71.76;100030.31;154048;1101;103110;-84
2021/08/15 05:54:50;;;;;;;14.33;11.60;;;;;;;21.76;71.95;100033.51;154150;1093;103467;-87
2021/08/15 05:57:53;;;;;;;13.43;11.47;;;;;;;21.82;71.88;100031.75;154340;1100;103169;-88
2021/08/15 06:00:55;;;;;;;13.60;12.17;;;;;;;21.84;71.51;100035.06;154078;1093;103385;-84
2021/08/15 06:03:58;;;;;;;12.33;10.47;;;;;;;21.82;71.41;100033.66;154092;1100;103473;-82
2021/08/15 06:07:01;;;;;;;13.37;10.37;;;;;;;21.81;71.38;100027.40;154081;1100;103134;-82
2021/08/15 06:10:05;;;;;;;13.57;11.20;;;;;;;21.93;71.66;100039.11;154100;1093;103153;-79
2021/08/15 06:13:09;;;;;;;13.43;10.37;;;;;;;22.06;71.55;100031.82;154109;1100;103123;-80
2021/08/15 06:16:12;;;;;;;11.53;10.33;;;;;;;22.14;71.21;100028.75;154019;1100;103586;-78
2021/08/15 06:19:15;;;;;;;14.07;11.17;;;;;;;22.27;71.08;100028.55;153997;1100;103112;-79
2021/08/15 06:22:17;;;;;;;10.87;9.77;;;;;;;22.47;71.00;100032.81;153999;1093;103184;-80
2021/08/15 06:25:20;;;;;;;11.45;10.05;;;;;;;22.60;70.48;100021.69;154405;1100;103151;-78
2021/08/15 06:28:23;;;;;;;12.30;10.37;;;;;;;22.58;70.34;100029.26;154082;1100;103126;-81
2021/08/15 06:31:27;;;;;;;12.37;10.90;;;;;;;22.54;70.24;100022.64;154187;1100;103291;-84
2021/08/15 06:34:30;;;;;;;10.10;8.60;;;;;;;22.61;70.58;100034.20;154162;1100;103147;-83
2021/08/15 06:37:33;;;;;;;9.70;8.43;;;;;;;22.73;69.94;100032.31;154377;1100;103135;-83
2021/08/15 06:40:35;;;;;;;10.33;9.23;;;;;;;22.80;70.23;100031.35;154315;1100;103191;-78
2021/08/15 06:43:39;;;;;;;12.43;9.93;;;;;;;22.79;69.84;100040.56;154599;1098;103227;-81
2021/08/15 06:46:42;;;;;;;11.33;8.40;;;;;;;22.74;69.78;100042.11;155358;1098;103327;-80
2021/08/15 06:49:45;;;;;;;11.53;9.47;;;;;;;22.78;69.41;100045.19;154965;1098;103486;-82
2021/08/15 06:52:48;;;;;;;9.05;8.15;;;;;;;22.84;69.38;100041.50;154968;1098;103193;-82
2021/08/15 06:55:51;;;;;;;9.80;8.80;;;;;;;22.92;68.69;100037.59;155075;1098;103241;-82
2021/08/15 06:58:53;;;;;;;11.00;8.90;;;;;;;23.00;69.30;100041.83;155136;1098;103192;-81
2021/08/15 07:01:56;;;;;;;10.90;8.23;;;;;;;23.08;68.33;100039.60;154966;1093;103190;-80
2021/08/15 07:04:59;;;;;;;9.40;8.05;;;;;;;23.21;68.72;100038.51;154846;1093;103122;-82
2021/08/15 07:08:02;;;;;;;10.87;9.13;;;;;;;23.31;68.58;100035.98;155098;1098;103560;-82
2021/08/15 07:11:04;;;;;;;10.17;9.07;;;;;;;23.41;68.25;100031.80;154761;1098;103187;-83
2021/08/15 07:14:07;;;;;;;9.43;8.23;;;;;;;23.46;68.23;100035.45;154756;1098;103145;-80
2021/08/15 07:17:10;;;;;;;8.87;8.03;;;;;;;23.50;67.60;100031.16;154694;1098;103188;-80
2021/08/15 07:20:15;;;;;;;9.23;8.13;;;;;;;23.49;68.19;100032.22;154933;1098;103273;-82
2021/08/15 07:23:17;;;;;;;9.75;7.90;;;;;;;23.55;67.32;100035.87;154793;1098;103135;-83
2021/08/15 07:26:20;;;;;;;7.87;7.07;;;;;;;23.68;65.77;100038.28;154753;1098;103113;-80
2021/08/15 07:29:23;;;;;;;8.70;7.80;;;;;;;23.78;65.10;100036.83;154526;1093;103189;-80
2021/08/15 07:32:26;;;;;;;8.40;6.93;;;;;;;23.85;65.99;100032.91;154677;1098;103122;-79
2021/08/15 07:35:30;;;;;;;9.45;6.70;;;;;;;23.97;65.97;100026.55;154697;1093;103250;-78
2021/08/15 07:38:33;;;;;;;8.07;6.43;;;;;;;24.05;65.85;100026.13;154729;1098;103541;-81
2021/08/15 07:41:36;;;;;;;7.50;6.80;;;;;;;24.12;65.89;100026.80;154610;1098;103512;-79
2021/08/15 07:44:39;;;;;;;7.67;5.87;;;;;;;24.17;64.82;100026.05;154703;1098;103180;-73
2021/08/15 07:47:42;;;;;;;8.00;5.90;;;;;;;24.26;65.23;100027.28;154741;1098;103193;-75
2021/08/15 07:50:45;;;;;;;7.10;6.03;;;;;;;24.32;64.08;100028.19;154611;1093;103270;-74
2021/08/15 07:53:47;;;;;;;8.30;6.10;;;;;;;24.39;64.24;100032.39;154671;1098;103121;-74
2021/08/15 07:56:50;;;;;;;7.10;6.40;;;;;;;24.48;63.79;100032.78;154603;1098;103211;-77
2021/08/15 07:59:54;;;;;;;7.30;6.00;;;;;;;24.56;62.95;100035.13;154608;1093;103203;-75
2021/08/15 08:02:56;;;;;;;8.60;5.60;;;;;;;24.62;61.50;100041.48;154605;1093;103290;-74
2021/08/15 08:05:59;;;;;;;6.60;5.57;;;;;;;24.69;62.73;100031.20;154674;1098;103269;-77
2021/08/15 08:09:02;;;;;;;6.63;5.13;;;;;;;24.78;62.91;100032.42;154667;1098;103128;-74
2021/08/15 08:12:06;;;;;;;8.17;6.63;;;;;;;24.91;62.18;100035.88;154564;1098;103192;-74
2021/08/15 08:15:10;;;;;;;9.03;7.33;;;;;;;24.96;62.32;100042.22;154582;1098;103121;-73
2021/08/15 08:18:16;;;;;;;8.63;7.43;;;;;;;25.00;60.91;100031.59;154584;1093;103128;-76
2021/08/15 08:21:19;;;;;;;9.10;7.70;;;;;;;25.03;60.81;100031.09;154689;1098;103117;-81
2021/08/15 08:24:21;;;;;;;8.50;7.65;;;;;;;25.04;61.28;100021.84;154657;1098;103355;-74
2021/08/15 08:27:24;;;;;;;8.27;6.77;;;;;;;25.07;61.19;100024.05;154650;1098;103119;-73
2021/08/15 08:30:27;;;;;;;10.77;6.90;;;;;;;25.13;61.37;100017.56;154649;1098;103110;-72
2021/08/15 08:33:30;;;;;;;13.10;7.40;;;;;;;25.19;61.19;100023.91;154613;1098;103196;-72
2021/08/15 08:36:33;;;;;;;7.53;6.73;;;;;;;25.24;61.48;100021.28;154608;1098;103188;-79
2021/08/15 08:39:36;;;;;;;9.63;7.60;;;;;;;25.25;60.05;100022.91;154790;1093;103260;-79
2021/08/15 08:42:38;;;;;;;7.70;6.90;;;;;;;25.28;61.10;100022.41;154730;1093;103153;-79
2021/08/15 08:45:45;;;;;;;8.30;6.80;;;;;;;25.33;59.20;100025.20;154705;1093;103122;-79
2021/08/15 08:48:48;;;;;;;7.67;6.87;;;;;;;25.39;58.91;100023.36;154693;1093;103188;-79
2021/08/15 08:51:51;;;;;;;6.60;5.93;;;;;;;25.40;60.11;100020.34;154711;1093;103230;-80
2021/08/15 08:54:53;;;;;;;7.90;5.97;;;;;;;25.45;57.57;100028.60;154718;1093;103245;-80
2021/08/15 08:57:56;;;;;;;6.97;5.80;;;;;;;25.55;59.37;100016.14;154130;1093;103197;-74
2021/08/15 09:00:59;;;;;;;6.88;6.10;;;;;;;25.69;58.94;100011.07;154080;1100;103188;-72
2021/08/15 09:04:02;;;;;;;9.25;6.60;;;;;;;25.74;57.06;100013.86;154197;1100;103189;-71
2021/08/15 09:07:12;;;;;;;9.33;8.43;;;;;;;25.78;55.11;100009.52;154089;1100;103125;-73
2021/08/15 09:10:14;;;;;;;7.87;6.20;;;;;;;25.76;57.11;100012.50;154137;1093;103262;-74
2021/08/15 09:13:26;;;;;;;10.30;7.70;;;;;;;25.77;57.62;100007.86;154089;1093;103840;-76
2021/08/15 09:16:50;;;;;;;15.90;12.23;;;;;;;25.83;56.33;100010.39;154004;1100;103134;-76
2021/08/15 09:19:53;;;;;;;10.20;6.57;;;;;;;25.88;56.09;100006.86;154026;1100;103116;-75
2021/08/15 09:22:56;;;;;;;13.20;10.43;;;;;;;25.92;55.37;100001.73;154027;1100;103200;-75
2021/08/15 09:26:17;;;;;;;10.40;8.87;;;;;;;26.02;55.51;99996.34;153960;1100;103272;-74
2021/08/15 09:29:20;;;;;;;6.55;5.90;;;;;;;26.12;56.33;99996.43;154587;1098;103232;-77
2021/08/15 09:32:26;;;;;;;8.47;7.67;;;;;;;26.18;51.13;100009.05;154549;1098;103131;-76
2021/08/15 09:35:32;;;;;;;6.33;5.00;;;;;;;26.16;54.27;100010.41;154619;1098;103090;-75
2021/08/15 09:38:44;;;;;;;5.85;5.25;;;;;;;26.18;53.34;99997.30;154633;1093;104694;-75
2021/08/15 09:41:51;;;;;;;6.93;5.60;;;;;;;26.37;54.68;99993.04;154663;1093;103243;-75
2021/08/15 09:44:54;;;;;;;5.75;5.00;;;;;;;26.60;54.64;99993.75;154649;1098;103221;-76
2021/08/15 09:47:57;;;;;;;55.73;39.80;;;;;;;26.77;53.63;100002.59;154633;1098;103174;-74
2021/08/15 09:51:06;;;;;;;41.50;33.75;;;;;;;26.93;52.99;100003.47;154542;1098;103189;-75
2021/08/15 09:54:15;;;;;;;40.05;34.10;;;;;;;26.98;52.69;100000.77;154654;1093;103143;-74
2021/08/15 09:57:30;;;;;;;34.13;30.57;;;;;;;26.98;48.83;100006.23;154726;1098;103665;-75
2021/08/15 10:00:33;;;;;;;9.78;8.15;;;;;;;27.00;49.79;99990.36;154642;1098;103122;-74
2021/08/15 10:03:38;;;;;;;12.00;6.05;;;;;;;26.95;51.65;100001.28;154617;1093;103195;-74
2021/08/15 10:06:43;;;;;;;9.23;8.40;;;;;;;26.85;49.46;99998.52;154605;1098;103109;-75
2021/08/15 10:09:46;;;;;;;9.88;7.28;;;;;;;26.72;49.54;99986.13;154589;1098;103125;-76
2021/08/15 10:12:49;;;;;;;6.80;5.17;;;;;;;26.68;51.75;99986.95;154601;1093;103538;-74
2021/08/15 10:16:01;;;;;;;6.30;5.00;;;;;;;26.70;51.08;99979.30;155333;1098;103194;-75
2021/08/15 10:19:08;;;;;;;5.03;4.30;;;;;;;26.70;52.05;99982.03;154640;1098;103188;-75
2021/08/15 10:22:19;;;;;;;5.27;4.40;;;;;;;26.68;51.25;99981.47;154707;1098;103116;-74
2021/08/15 10:25:33;;;;;;;5.78;4.20;;;;;;;26.70;46.37;99979.30;154671;1098;103145;-74
2021/08/15 10:28:41;;;;;;;5.48;4.05;;;;;;;26.70;49.86;99976.55;154654;1093;103125;-74
2021/08/15 10:32:17;;;;;;;6.27;4.10;;;;;;;26.71;47.78;99976.27;154733;1093;103177;-75
2021/08/15 10:35:20;;;;;;;5.05;4.20;;;;;;;26.72;48.75;99969.72;153988;1100;103356;-74
2021/08/15 10:38:32;;;;;;;6.03;4.80;;;;;;;26.78;48.92;99967.83;154600;1098;103122;-74
2021/08/15 10:41:54;;;;;;;4.57;3.87;;;;;;;26.88;50.58;99956.90;154177;1093;103208;-74
2021/08/15 10:45:05;;;;;;;4.93;3.70;;;;;;;26.92;49.74;99949.79;154707;1098;103206;-76
2021/08/15 10:48:25;;;;;;;5.43;3.95;;;;;;;26.95;50.26;99949.27;154731;1093;103140;-76
2021/08/15 10:51:49;;;;;;;5.50;4.00;;;;;;;26.98;48.43;99948.73;154671;1093;103096;-74
2021/08/15 10:54:59;;;;;;;10.20;7.28;;;;;;;27.00;48.30;99948.45;154590;1098;103142;-77
2021/08/15 10:58:02;;;;;;;5.20;4.70;;;;;;;27.02;48.66;99943.52;154642;1098;103246;-73
2021/08/15 11:01:06;;;;;;;5.50;4.80;;;;;;;27.06;48.61;99941.06;154628;1093;103198;-74
2021/08/15 11:04:29;;;;;;;4.48;3.95;;;;;;;27.11;49.48;99941.09;154721;1094;103154;-72
2021/08/15 11:07:36;;;;;;;6.00;3.87;;;;;;;27.16;49.56;99935.63;154605;1098;103096;-74
2021/08/15 11:11:06;;;;;;;3.70;3.30;;;;;;;27.19;46.10;99946.02;154657;1098;103115;-75
2021/08/15 11:14:28;;;;;;;6.38;5.20;;;;;;;27.23;47.79;99937.02;154636;1093;103108;-73
2021/08/15 11:17:32;;;;;;;5.30;4.77;;;;;;;27.31;47.55;99934.84;154619;1098;103256;-74
2021/08/15 11:20:42;;;;;;;7.73;5.47;;;;;;;27.32;48.59;99925.55;155038;1093;103192;-75
2021/08/15 11:23:47;;;;;;;4.43;4.00;;;;;;;27.27;47.12;99941.96;154648;1098;103185;-75
2021/08/15 11:26:50;;;;;;;9.70;8.70;;;;;;;27.24;46.66;99943.31;154577;1098;103193;-77
2021/08/15 11:29:54;;;;;;;8.80;6.17;;;;;;;27.23;45.38;99936.17;154662;1098;103119;-80
2021/08/15 11:33:00;;;;;;;6.87;6.17;;;;;;;27.18;47.21;99936.18;154625;1093;103259;-77
2021/08/15 11:36:13;;;;;;;7.27;5.60;;;;;;;27.17;45.44;99931.78;154728;1093;103142;-77
2021/08/15 11:39:15;;;;;;;10.70;8.30;;;;;;;27.14;46.18;99941.38;154801;1098;103126;-78
2021/08/15 11:42:20;;;;;;;8.03;6.83;;;;;;;27.15;45.85;99939.45;154742;1098;103122;-78
2021/08/15 11:45:34;;;;;;;5.00;3.70;;;;;;;27.14;44.04;99940.56;154769;1094;103223;-75
2021/08/15 11:48:37;;;;;;;5.13;3.60;;;;;;;27.15;46.26;99942.19;154816;1098;103123;-76
2021/08/15 11:51:40;;;;;;;8.50;6.90;;;;;;;27.17;45.97;99931.78;154661;1098;103112;-75
2021/08/15 11:54:43;;;;;;;5.90;4.60;;;;;;;27.17;46.20;99937.27;154614;1094;103154;-75
2021/08/15 11:57:46;;;;;;;11.87;9.30;;;;;;;27.19;46.75;99930.41;154691;1098;103190;-76
2021/08/15 12:00:50;;;;;;;5.47;4.73;;;;;;;27.26;45.57;99937.59;154637;1098;103196;-75
2021/08/15 12:04:01;;;;;;;8.58;5.25;;;;;;;27.28;45.00;99938.95;154682;1098;103208;-77
2021/08/15 12:07:04;;;;;;;6.87;6.13;;;;;;;27.22;43.26;99934.54;154538;1098;103183;-76
2021/08/15 12:10:26;;;;;;;6.38;5.43;;;;;;;27.20;45.10;99933.99;154625;1098;103145;-75
2021/08/15 12:13:33;;;;;;;5.88;5.28;;;;;;;27.22;45.79;99918.11;154639;1098;103150;-78
2021/08/15 12:16:37;;;;;;;6.40;3.93;;;;;;;27.26;44.96;99932.93;154280;1093;103322;-77
2021/08/15 12:19:40;;;;;;;5.60;5.00;;;;;;;27.27;45.11;99931.81;154787;1098;103652;-77
2021/08/15 12:22:42;;;;;;;4.73;3.70;;;;;;;27.30;45.12;99917.59;154456;1098;103192;-77
2021/08/15 12:26:03;;;;;;;3.70;3.23;;;;;;;27.31;41.71;99940.32;154380;1098;103104;-77
2021/08/15 12:29:06;;;;;;;;;;;;;;;27.32;43.46;99920.88;154373;1098;103091;-76
2021/08/15 12:32:11;;;;;;;5.37;3.47;;;;;;;27.28;44.41;99927.19;154443;1098;103140;-75
2021/08/15 12:35:23;;;;;;;3.73;3.23;;;;;;;27.39;45.10;99923.36;154619;1098;103270;-78
2021/08/15 12:38:30;;;;;;;3.90;3.00;;;;;;;27.48;45.51;99909.92;154451;1098;103191;-76
2021/08/15 12:41:48;;;;;;;6.33;3.77;;;;;;;27.48;42.51;99920.89;154416;1093;103124;-77
2021/08/15 12:44:54;;;;;;;8.10;3.40;;;;;;;27.44;44.09;99911.58;154347;1098;103467;-77
2021/08/15 12:48:00;;;;;;;4.43;3.13;;;;;;;27.44;44.83;99909.65;154617;1098;103121;-79
2021/08/15 12:51:03;;;;;;;6.50;4.97;;;;;;;27.47;44.73;99914.59;154620;1098;103195;-76
2021/08/15 12:54:06;;;;;;;6.23;5.03;;;;;;;27.38;42.71;99911.56;154630;1093;103265;-74
2021/08/15 12:57:08;;;;;;;4.50;3.83;;;;;;;27.34;43.21;99904.98;154588;1093;103193;-74
2021/08/15 13:00:17;;;;;;;5.18;4.53;;;;;;;27.36;43.77;99905.53;154596;1098;104358;-77
2021/08/15 13:03:22;;;;;;;3.60;2.83;;;;;;;27.40;43.61;99906.63;154655;1098;103128;-77
2021/08/15 13:06:26;;;;;;;4.53;3.50;;;;;;;27.49;43.95;99906.11;154557;1098;103122;-76
2021/08/15 13:09:29;;;;;;;3.53;3.00;;;;;;;27.56;43.89;99912.95;154645;1098;103126;-77
2021/08/15 13:12:32;;;;;;;8.90;4.73;;;;;;;27.65;44.16;99898.69;154669;1093;103525;-74
2021/08/15 13:15:36;;;;;;;4.13;3.53;;;;;;;27.64;42.39;99900.62;154616;1098;103128;-79
2021/08/15 13:18:39;;;;;;;9.50;8.00;;;;;;;27.60;43.45;99897.60;154480;1098;103195;-79
2021/08/15 13:21:42;;;;;;;7.35;5.40;;;;;;;27.59;43.44;99897.88;154428;1098;103266;-78
2021/08/15 13:24:45;;;;;;;6.93;5.07;;;;;;;27.55;43.88;99910.48;154719;1098;103221;-80
2021/08/15 13:27:49;;;;;;;10.43;6.50;;;;;;;27.47;42.08;99905.56;154667;1098;103125;-74
2021/08/15 13:30:52;;;;;;;8.88;4.78;;;;;;;27.40;41.82;99903.89;154450;1098;103189;-73
2021/08/15 13:33:54;;;;;;;12.57;8.97;;;;;;;27.33;42.05;99900.63;154474;1098;103164;-74
2021/08/15 13:36:58;;;;;;;11.93;8.80;;;;;;;27.27;43.41;99901.69;154217;1093;103237;-74
2021/08/15 13:40:05;;;;;;;10.33;6.50;;;;;;;27.25;43.32;99894.84;154002;1101;103209;-75
2021/08/15 13:43:08;;;;;;;10.57;7.30;;;;;;;27.19;43.13;99892.06;154191;1098;103125;-75
2021/08/15 13:46:11;;;;;;;8.60;7.13;;;;;;;27.11;42.75;99889.87;154365;1093;103197;-74
2021/08/15 13:49:14;;;;;;;6.13;3.90;;;;;;;27.03;42.42;99896.70;154356;1098;103272;-74
2021/08/15 13:52:17;;;;;;;8.03;5.20;;;;;;;27.02;42.95;99875.91;154337;1098;103279;-75